Time;durP1;ratioP1;P1;durP2;ratioP2;P2;SDS_P1;SDS_P2;PMS_P1;PMS_P2;Temp;Humidity;BMP_temperature;BMP_pressure;BME280_temperature;BME280_humidity;BME280_pressure;Samples;Min_cycle;Max_cycle;Signal;HPM_P1;HPM_P2
2022/09/18 00:00:55;;;;;;;6.17;0.77;;;;;;;8.51;100.00;99844.34;5052187;28;20179;-76
2022/09/18 00:03:20;;;;;;;6.63;0.53;;;;;;;8.48;100.00;99839.53;5051796;28;20175;-77
2022/09/18 00:05:46;;;;;;;4.37;0.80;;;;;;;8.45;100.00;99845.59;5051752;28;20182;-76
2022/09/18 00:08:11;;;;;;;0.63;0.30;;;;;;;8.45;100.00;99848.31;5051861;28;20613;-76
2022/09/18 00:10:45;;;;;;;1.23;0.70;;;;;;;8.45;100.00;99837.44;5051902;28;20168;-76
2022/09/18 00:13:11;;;;;;;1.70;0.57;;;;;;;8.48;100.00;99853.13;5051759;28;20170;-76
2022/09/18 00:15:37;;;;;;;5.90;0.50;;;;;;;8.48;100.00;99847.69;5051534;28;20203;-77
2022/09/18 00:18:03;;;;;;;2.10;1.17;;;;;;;8.50;100.00;99845.47;5051407;28;20180;-77
2022/09/18 00:20:29;;;;;;;1.70;0.57;;;;;;;8.54;100.00;99846.47;5051540;28;20603;-77
2022/09/18 00:22:54;;;;;;;0.27;0.20;;;;;;;8.56;100.00;99852.41;5051477;28;20247;-77
2022/09/18 00:25:20;;;;;;;5.30;0.50;;;;;;;8.57;100.00;99860.25;5051416;28;20175;-77
2022/09/18 00:27:45;;;;;;;0.73;0.73;;;;;;;8.58;100.00;99855.59;5051297;28;20662;-77
2022/09/18 00:30:11;;;;;;;0.10;0.10;;;;;;;8.58;100.00;99874.66;5051668;28;20635;-76
2022/09/18 00:32:36;;;;;;;1.80;0.77;;;;;;;8.59;100.00;99866.19;5053811;28;20660;-77
2022/09/18 00:35:02;;;;;;;0.93;0.93;;;;;;;8.60;100.00;99859.63;5071852;28;20233;-76
2022/09/18 00:37:27;;;;;;;0.30;0.30;;;;;;;8.60;100.00;99864.25;5071226;28;20166;-76
2022/09/18 00:39:53;;;;;;;0.37;0.37;;;;;;;8.59;100.00;99871.63;5071425;28;20185;-75
2022/09/18 00:42:19;;;;;;;1.80;0.83;;;;;;;8.61;100.00;99861.22;5071267;28;20194;-75
2022/09/18 00:44:48;;;;;;;2.73;0.93;;;;;;;8.64;100.00;99873.41;5071437;28;20175;-76
2022/09/18 00:47:45;;;;;;;2.13;0.83;;;;;;;8.70;100.00;99868.66;5052886;28;20913;-75
2022/09/18 00:50:20;;;;;;;3.83;0.80;;;;;;;8.72;100.00;99875.38;5055037;28;20633;-75
2022/09/18 00:52:55;;;;;;;0.60;0.60;;;;;;;8.74;100.00;99881.31;5071078;28;20171;-75
2022/09/18 00:55:26;;;;;;;10.57;1.53;;;;;;;8.75;100.00;99880.19;5071049;28;20193;-75
2022/09/18 00:57:54;;;;;;;0.80;0.67;;;;;;;8.78;100.00;99876.03;5070757;28;20261;-76
2022/09/18 01:00:20;;;;;;;0.57;0.47;;;;;;;8.78;100.00;99879.56;5071092;28;20642;-76
2022/09/18 01:02:47;;;;;;;11.87;0.60;;;;;;;8.80;100.00;99882.78;5070934;28;20206;-76
2022/09/18 01:05:16;;;;;;;3.17;1.67;;;;;;;8.80;100.00;99880.03;5071816;28;20178;-76
2022/09/18 01:07:57;;;;;;;1.73;0.60;;;;;;;8.84;100.00;99888.41;5075314;28;20182;-76
2022/09/18 01:10:28;;;;;;;11.63;0.73;;;;;;;8.87;100.00;99885.06;5079323;28;20179;-76
2022/09/18 01:13:18;;;;;;;3.30;1.10;;;;;;;8.88;100.00;99890.19;5071956;28;20232;-76
2022/09/18 01:16:00;;;;;;;0.10;0.10;;;;;;;8.87;100.00;99891.31;5070908;28;20678;-77
2022/09/18 01:18:31;;;;;;;3.33;1.53;;;;;;;8.90;100.00;99889.88;5071369;28;20162;-76
2022/09/18 01:21:09;;;;;;;2.63;0.47;;;;;;;8.92;100.00;99899.34;5070808;28;20175;-76
2022/09/18 01:24:05;;;;;;;19.07;0.60;;;;;;;8.95;100.00;99884.28;5070898;28;20593;-76
2022/09/18 01:27:03;;;;;;;3.23;1.23;;;;;;;8.96;100.00;99885.88;5052563;28;20178;-76
2022/09/18 01:29:34;;;;;;;3.20;0.20;;;;;;;8.96;100.00;99885.88;5070682;28;20532;-76
2022/09/18 01:32:31;;;;;;;0.30;0.20;;;;;;;8.98;100.00;99882.88;5052703;28;20718;-76
2022/09/18 01:35:18;;;;;;;0.83;0.83;;;;;;;9.00;100.00;99891.53;5070487;28;20198;-76
2022/09/18 01:37:54;;;;;;;0.60;0.57;;;;;;;9.00;100.00;99891.53;5073845;28;20668;-76
2022/09/18 01:40:30;;;;;;;0.27;0.27;;;;;;;9.00;100.00;99891.53;5074675;28;20173;-76
2022/09/18 01:43:00;;;;;;;0.20;0.20;;;;;;;9.01;100.00;99890.41;5074723;28;20174;-76
2022/09/18 01:45:31;;;;;;;0.87;0.83;;;;;;;9.03;100.00;99888.97;5074464;28;20229;-76
2022/09/18 01:48:00;;;;;;;9.13;1.00;;;;;;;9.05;100.00;99888.66;5074272;28;20182;-76
2022/09/18 01:50:29;;;;;;;0.07;0.07;;;;;;;9.07;100.00;99883.69;5074474;28;20192;-76
2022/09/18 01:53:20;;;;;;;3.80;1.27;;;;;;;9.07;100.00;99878.25;5074312;28;20170;-76
2022/09/18 01:55:55;;;;;;;0.00;0.00;;;;;;;9.08;100.00;99886.09;5074121;28;20198;-76
2022/09/18 01:58:23;;;;;;;3.60;0.30;;;;;;;9.09;100.00;99884.19;5074316;28;20185;-76
2022/09/18 02:00:54;;;;;;;2.03;0.33;;;;;;;9.10;100.00;99883.06;5074124;28;20239;-76
2022/09/18 02:03:24;;;;;;;4.20;0.40;;;;;;;9.10;100.00;99889.31;5073869;28;20170;-76
2022/09/18 02:05:54;;;;;;;2.80;0.33;;;;;;;9.11;100.00;99881.94;5074581;28;20182;-76
2022/09/18 02:08:23;;;;;;;0.97;0.30;;;;;;;9.11;100.00;99887.38;5074022;28;20544;-76
2022/09/18 02:10:53;;;;;;;1.73;1.17;;;;;;;9.14;100.00;99892.22;5063932;28;20526;-76
2022/09/18 02:13:25;;;;;;;3.83;1.33;;;;;;;9.13;100.00;99890.63;5054119;28;20175;-76
2022/09/18 02:15:57;;;;;;;1.23;0.90;;;;;;;9.14;100.00;99894.94;5053686;28;20207;-76
2022/09/18 02:18:30;;;;;;;0.10;0.10;;;;;;;9.14;100.00;99890.31;5053809;28;20218;-76
2022/09/18 02:20:57;;;;;;;0.63;0.53;;;;;;;9.13;100.00;99887.91;5053834;28;20244;-76
2022/09/18 02:23:23;;;;;;;0.03;0.03;;;;;;;9.11;100.00;99896.41;5053826;28;20179;-76
2022/09/18 02:25:53;;;;;;;1.20;0.83;;;;;;;9.11;100.00;99899.13;5053766;28;20185;-76
2022/09/18 02:28:21;;;;;;;1.33;0.57;;;;;;;9.07;100.00;99895.41;5054516;28;20642;-76
2022/09/18 02:30:47;;;;;;;0.23;0.23;;;;;;;9.05;100.00;99896.84;5053811;28;20686;-75
2022/09/18 02:33:28;;;;;;;0.10;0.10;;;;;;;9.04;100.00;99898.75;5053860;28;20263;-76
2022/09/18 02:36:18;;;;;;;0.97;0.40;;;;;;;9.00;100.00;99891.53;5053493;28;20245;-76
2022/09/18 02:38:53;;;;;;;0.00;0.00;;;;;;;8.99;100.00;99881.75;5053509;28;20179;-76
2022/09/18 02:41:50;;;;;;;1.27;1.17;;;;;;;8.94;100.00;99888.94;5053474;28;20171;-76
2022/09/18 02:44:43;;;;;;;3.20;0.47;;;;;;;8.93;100.00;99894.69;5053439;28;20182;-76
2022/09/18 02:47:40;;;;;;;2.07;0.20;;;;;;;8.91;100.00;99884.13;5034352;28;20187;-76
2022/09/18 02:50:21;;;;;;;3.63;0.87;;;;;;;8.88;100.00;99894.84;5053276;28;20171;-76
2022/09/18 02:52:56;;;;;;;4.87;0.73;;;;;;;8.83;100.00;99890.34;5053305;28;20182;-76
2022/09/18 02:55:31;;;;;;;0.90;0.47;;;;;;;8.84;100.00;99888.41;5035055;28;20212;-76
2022/09/18 02:58:05;;;;;;;0.90;0.90;;;;;;;8.81;100.00;99881.66;5052889;28;20676;-76
2022/09/18 03:00:31;;;;;;;3.63;1.13;;;;;;;8.80;100.00;99881.97;5053031;28;20690;-76
2022/09/18 03:02:58;;;;;;;1.23;0.40;;;;;;;8.81;100.00;99875.41;5052762;28;20255;-76
2022/09/18 03:05:24;;;;;;;0.30;0.07;;;;;;;8.83;100.00;99875.91;5053010;28;20171;-76
2022/09/18 03:07:50;;;;;;;3.93;0.67;;;;;;;8.84;100.00;99872.88;5052717;28;20702;-76
2022/09/18 03:10:15;;;;;;;0.20;0.20;;;;;;;8.86;100.00;99889.72;5052909;28;20179;-76
2022/09/18 03:12:41;;;;;;;0.77;0.53;;;;;;;8.89;100.00;99878.19;5052935;28;20172;-75
2022/09/18 03:15:07;;;;;;;0.20;0.20;;;;;;;8.92;100.00;99868.56;5052761;28;20260;-76
2022/09/18 03:17:33;;;;;;;1.10;0.43;;;;;;;8.93;100.00;99878.34;5052539;28;20187;-76
2022/09/18 03:19:58;;;;;;;3.37;0.53;;;;;;;8.91;100.00;99873.22;5052703;28;20221;-76
2022/09/18 03:22:23;;;;;;;0.83;0.57;;;;;;;8.88;100.00;99873.84;5052518;28;20206;-76
2022/09/18 03:24:49;;;;;;;0.27;0.27;;;;;;;8.86;100.00;99873.38;5052717;28;20665;-76
2022/09/18 03:27:16;;;;;;;3.00;1.33;;;;;;;8.87;100.00;99877.69;5052340;28;20191;-76
2022/09/18 03:29:42;;;;;;;1.90;1.10;;;;;;;8.87;100.00;99874.97;5052458;28;20179;-76
2022/09/18 03:32:07;;;;;;;2.33;1.20;;;;;;;8.84;100.00;99870.16;5052695;28;20711;-75
2022/09/18 03:34:32;;;;;;;3.77;1.40;;;;;;;8.84;100.00;99874.81;5052299;28;20729;-75
2022/09/18 03:36:58;;;;;;;1.90;1.60;;;;;;;8.78;100.00;99873.31;5052099;28;20183;-76
2022/09/18 03:39:23;;;;;;;3.00;0.87;;;;;;;8.74;100.00;99875.06;5052409;28;20201;-76
2022/09/18 03:41:48;;;;;;;4.23;1.47;;;;;;;8.68;100.00;99868.97;5052379;28;20549;-75
2022/09/18 03:44:14;;;;;;;0.87;0.23;;;;;;;8.63;100.00;99877.25;5034424;28;20630;-76
2022/09/18 03:46:39;;;;;;;0.37;0.37;;;;;;;8.59;100.00;99870.81;5051833;28;20183;-76
2022/09/18 03:49:04;;;;;;;14.90;2.57;;;;;;;8.53;100.00;99866.59;5070543;28;20184;-76
2022/09/18 03:51:30;;;;;;;0.20;0.20;;;;;;;8.49;100.00;99868.34;5072210;28;20174;-76
2022/09/18 03:53:55;;;;;;;2.23;1.17;;;;;;;8.48;100.00;99878.44;5070697;28;20234;-76
2022/09/18 03:56:20;;;;;;;0.70;0.70;;;;;;;8.46;100.00;99868.97;5071760;28;20174;-76
2022/09/18 03:58:46;;;;;;;6.37;1.27;;;;;;;8.43;100.00;99875.06;5071483;28;20175;-75
2022/09/18 04:01:12;;;;;;;1.00;0.80;;;;;;;8.43;100.00;99867.69;5071863;28;20174;-76
2022/09/18 04:03:38;;;;;;;1.40;1.10;;;;;;;8.44;100.00;99874.75;5071347;28;20175;-76
2022/09/18 04:06:04;;;;;;;0.30;0.30;;;;;;;8.40;100.00;99865.59;5071839;28;20196;-76
2022/09/18 04:08:29;;;;;;;4.80;0.97;;;;;;;8.40;100.00;99871.03;5071636;28;20171;-76
2022/09/18 04:10:54;;;;;;;0.67;0.67;;;;;;;8.41;100.00;99874.56;5071721;28;20171;-76
2022/09/18 04:13:20;;;;;;;0.27;0.27;;;;;;;8.43;100.00;99866.88;5053735;28;20175;-76
2022/09/18 04:15:48;;;;;;;6.27;1.17;;;;;;;8.46;100.00;99864.34;5071357;28;20202;-75
2022/09/18 04:18:14;;;;;;;0.57;0.30;;;;;;;8.50;100.00;99868.03;5071464;28;20181;-76
2022/09/18 04:20:40;;;;;;;3.63;1.03;;;;;;;8.51;100.00;99879.72;5071717;28;20182;-76
2022/09/18 04:23:05;;;;;;;4.27;1.77;;;;;;;8.53;100.00;99877.50;5070278;28;20197;-76
2022/09/18 04:25:31;;;;;;;0.57;0.50;;;;;;;8.53;100.00;99872.84;5071378;28;20178;-76
2022/09/18 04:27:57;;;;;;;1.33;0.87;;;;;;;8.54;100.00;99868.25;5071250;28;20578;-76
2022/09/18 04:30:22;;;;;;;4.60;0.83;;;;;;;8.54;100.00;99858.16;5071473;28;20231;-76
2022/09/18 04:32:47;;;;;;;1.40;0.70;;;;;;;8.54;100.00;99870.97;5071336;28;20178;-76
2022/09/18 04:35:13;;;;;;;4.80;1.43;;;;;;;8.54;100.00;99854.63;5070071;28;20206;-76
2022/09/18 04:37:41;;;;;;;2.40;0.53;;;;;;;8.55;100.00;99864.41;5071050;28;20182;-76
2022/09/18 04:40:07;;;;;;;0.93;0.83;;;;;;;8.58;100.00;99867.28;5071176;28;20182;-76
2022/09/18 04:42:32;;;;;;;6.00;0.67;;;;;;;8.61;100.00;99865.88;5053185;28;20178;-75
2022/09/18 04:44:57;;;;;;;1.00;0.90;;;;;;;8.63;100.00;99863.63;5071509;28;20309;-76
2022/09/18 04:47:22;;;;;;;1.20;1.13;;;;;;;8.62;100.00;99859.31;5069258;28;20194;-76
2022/09/18 04:49:48;;;;;;;2.17;1.97;;;;;;;8.55;100.00;99859.75;5070958;28;20182;-76
2022/09/18 04:52:13;;;;;;;6.53;1.53;;;;;;;8.57;100.00;99873.84;5071030;28;20648;-76
2022/09/18 04:54:39;;;;;;;3.80;0.93;;;;;;;8.56;100.00;99868.72;5070848;28;20281;-77
2022/09/18 04:57:04;;;;;;;7.80;1.93;;;;;;;8.54;100.00;99870.97;5071056;28;20265;-76
2022/09/18 04:59:30;;;;;;;0.83;0.63;;;;;;;8.56;100.00;99882.34;5070916;28;20178;-75
2022/09/18 05:01:55;;;;;;;4.43;1.27;;;;;;;8.57;100.00;99879.31;5070726;28;20177;-76
2022/09/18 05:04:20;;;;;;;5.27;3.73;;;;;;;8.60;100.00;99877.88;5070772;28;20178;-76
2022/09/18 05:06:45;;;;;;;9.80;1.87;;;;;;;8.64;100.00;99876.13;5070802;28;20181;-76
2022/09/18 05:09:11;;;;;;;7.57;1.03;;;;;;;8.65;100.00;99875.81;5071023;28;20240;-76
2022/09/18 05:11:38;;;;;;;0.73;0.63;;;;;;;8.68;100.00;99868.13;5070092;28;20179;-76
2022/09/18 05:14:04;;;;;;;8.20;1.50;;;;;;;8.72;100.00;99871.84;5070642;28;20292;-76
2022/09/18 05:16:29;;;;;;;1.30;1.07;;;;;;;8.75;100.00;99873.94;5048931;28;20262;-76
2022/09/18 05:18:55;;;;;;;10.73;1.43;;;;;;;8.77;100.00;99872.50;5032742;28;20221;-76
2022/09/18 05:21:21;;;;;;;4.43;1.27;;;;;;;8.81;100.00;99876.22;5032805;28;20702;-76
2022/09/18 05:23:46;;;;;;;1.53;0.80;;;;;;;8.86;100.00;99878.00;5032785;28;20265;-75
2022/09/18 05:26:13;;;;;;;2.40;1.53;;;;;;;8.89;100.00;99867.28;5050807;28;20206;-76
2022/09/18 05:28:38;;;;;;;2.50;1.30;;;;;;;8.96;100.00;99880.44;5032347;28;20171;-76
2022/09/18 05:31:03;;;;;;;3.97;1.30;;;;;;;9.02;100.00;99883.84;5050563;28;20197;-76
2022/09/18 05:33:29;;;;;;;8.70;2.93;;;;;;;9.06;100.00;99888.34;5050470;28;20183;-77
2022/09/18 05:35:56;;;;;;;2.80;1.13;;;;;;;9.11;100.00;99893.66;5050119;28;20218;-76
2022/09/18 05:38:23;;;;;;;0.53;0.53;;;;;;;9.11;100.00;99882.78;5032599;28;20175;-76
2022/09/18 05:40:48;;;;;;;1.17;0.60;;;;;;;9.03;100.00;99869.09;5049825;28;20267;-79
2022/09/18 05:43:15;;;;;;;3.67;1.60;;;;;;;8.94;100.00;99860.88;5049765;28;20604;-79
2022/09/18 05:45:41;;;;;;;1.80;0.93;;;;;;;8.91;100.00;99865.03;5031795;28;20183;-79
2022/09/18 05:48:07;;;;;;;12.07;1.93;;;;;;;8.90;100.00;99870.81;5048763;28;20708;-77
2022/09/18 05:50:35;;;;;;;3.40;1.07;;;;;;;8.90;100.00;99866.16;5049855;28;20171;-77
2022/09/18 05:53:12;;;;;;;1.43;1.33;;;;;;;8.94;100.00;99860.88;5050129;28;20187;-77
2022/09/18 05:55:38;;;;;;;4.83;1.43;;;;;;;8.93;100.00;99851.91;5049873;28;20300;-77
2022/09/18 05:58:05;;;;;;;0.10;0.10;;;;;;;8.93;100.00;99870.97;5049996;28;20167;-78
2022/09/18 06:00:33;;;;;;;1.70;1.27;;;;;;;8.91;100.00;99865.03;5032234;28;20211;-76
2022/09/18 06:03:01;;;;;;;3.90;0.40;;;;;;;8.89;100.00;99856.38;5048129;28;20341;-79
2022/09/18 06:05:30;;;;;;;9.17;1.53;;;;;;;8.90;100.00;99871.59;5049742;28;20203;-78
2022/09/18 06:08:00;;;;;;;2.63;1.83;;;;;;;8.91;100.00;99875.94;5049438;28;20569;-78
2022/09/18 06:10:27;;;;;;;2.33;0.57;;;;;;;8.92;100.00;99872.09;5049805;28;20179;-78
2022/09/18 06:13:03;;;;;;;1.23;0.93;;;;;;;8.91;100.00;99873.22;5050129;28;20190;-80
2022/09/18 06:15:29;;;;;;;1.10;0.83;;;;;;;8.93;100.00;99870.97;5049633;28;20270;-77
2022/09/18 06:17:54;;;;;;;0.20;0.20;;;;;;;8.90;100.00;99871.59;5049508;28;20207;-79
2022/09/18 06:20:20;;;;;;;0.93;0.67;;;;;;;8.91;100.00;99872.41;5049714;28;20651;-77
2022/09/18 06:22:46;;;;;;;3.20;0.63;;;;;;;8.92;100.00;99874.81;5051432;28;20186;-77
2022/09/18 06:25:11;;;;;;;5.67;1.80;;;;;;;8.95;100.00;99876.91;5053551;28;20175;-77
2022/09/18 06:27:36;;;;;;;5.17;1.17;;;;;;;9.00;100.00;99880.63;5052379;28;20175;-78
2022/09/18 06:30:04;;;;;;;0.67;0.40;;;;;;;9.06;100.00;99877.44;5053208;28;20226;-77
2022/09/18 06:32:29;;;;;;;1.90;1.13;;;;;;;9.15;100.00;99878.28;5053186;28;20175;-76
2022/09/18 06:34:54;;;;;;;5.93;1.70;;;;;;;9.26;100.00;99873.34;5053205;28;20199;-76
2022/09/18 06:37:19;;;;;;;1.07;0.90;;;;;;;9.40;100.00;99870.47;5053258;28;20635;-76
2022/09/18 06:39:45;;;;;;;5.23;2.43;;;;;;;9.55;100.00;99878.22;5049315;28;20175;-76
2022/09/18 06:42:10;;;;;;;0.30;0.30;;;;;;;9.62;100.00;99870.38;5043978;28;20802;-75
2022/09/18 06:44:36;;;;;;;2.23;0.97;;;;;;;9.70;100.00;99872.31;5052971;28;20194;-76
2022/09/18 06:47:02;;;;;;;21.43;1.43;;;;;;;9.74;100.00;99883.38;5052907;28;20764;-76
2022/09/18 06:49:27;;;;;;;1.60;1.23;;;;;;;9.74;100.00;99877.94;5052771;28;20175;-76
2022/09/18 06:51:54;;;;;;;0.77;0.77;;;;;;;9.78;100.00;99895.25;5052650;28;20202;-76
2022/09/18 06:54:22;;;;;;;3.23;0.90;;;;;;;9.74;100.00;99876.00;5051820;28;20255;-78
2022/09/18 06:56:48;;;;;;;0.90;0.83;;;;;;;9.72;100.00;99880.19;5052577;28;20229;-77
2022/09/18 06:59:17;;;;;;;3.43;0.80;;;;;;;9.75;100.00;99879.53;5052669;28;20183;-76
2022/09/18 07:01:45;;;;;;;0.50;0.50;;;;;;;9.81;100.00;99867.31;5045380;28;20179;-78
2022/09/18 07:04:10;;;;;;;1.80;0.73;;;;;;;9.90;100.00;99872.81;5052407;28;20681;-79
2022/09/18 07:06:36;;;;;;;0.43;0.43;;;;;;;9.95;100.00;99867.16;5032678;28;20207;-77
2022/09/18 07:09:01;;;;;;;2.00;0.93;;;;;;;9.99;100.00;99870.88;5032760;28;20180;-79
2022/09/18 07:11:26;;;;;;;7.77;0.70;;;;;;;10.10;100.00;99880.34;5042406;28;20194;-78
2022/09/18 07:13:53;;;;;;;1.80;0.87;;;;;;;10.13;100.00;99869.59;5052336;28;20211;-77
2022/09/18 07:16:18;;;;;;;4.07;0.70;;;;;;;10.22;100.00;99869.59;5051489;28;20195;-77
2022/09/18 07:18:45;;;;;;;3.60;0.67;;;;;;;10.32;100.00;99871.19;5051424;28;20550;-78
2022/09/18 07:21:10;;;;;;;0.63;0.63;;;;;;;10.38;100.00;99875.34;5052869;28;20276;-79
2022/09/18 07:23:36;;;;;;;3.80;1.20;;;;;;;10.48;100.00;99880.50;5051968;28;20249;-74
2022/09/18 07:26:03;;;;;;;1.50;1.00;;;;;;;10.54;100.00;99875.66;5052542;28;20187;-74
2022/09/18 07:28:28;;;;;;;3.20;0.70;;;;;;;10.52;100.00;99878.72;5052539;28;20175;-75
2022/09/18 07:30:54;;;;;;;0.60;0.50;;;;;;;10.48;100.00;99879.69;5052716;28;20179;-74
2022/09/18 07:33:19;;;;;;;9.73;0.80;;;;;;;10.52;100.00;99875.97;5034500;28;20182;-75
2022/09/18 07:35:45;;;;;;;3.90;0.67;;;;;;;10.55;100.00;99869.84;5051891;28;20207;-75
2022/09/18 07:38:10;;;;;;;0.97;0.90;;;;;;;10.57;100.00;99875.81;5034603;28;20175;-75
2022/09/18 07:40:36;;;;;;;0.10;0.10;;;;;;;10.56;100.00;99874.22;5052752;28;20520;-75
2022/09/18 07:43:06;;;;;;;1.40;0.87;;;;;;;10.59;100.00;99872.75;5034872;28;20179;-75
2022/09/18 07:45:36;;;;;;;5.43;0.93;;;;;;;10.62;100.00;99869.38;5052834;28;20312;-75
2022/09/18 07:48:05;;;;;;;1.10;0.77;;;;;;;10.68;100.00;99873.53;5052232;28;20210;-75
2022/09/18 07:50:31;;;;;;;10.00;0.93;;;;;;;10.72;100.00;99871.75;5052516;28;20222;-75
2022/09/18 07:53:00;;;;;;;2.63;0.40;;;;;;;10.75;100.00;99876.56;5034422;28;20175;-75
2022/09/18 07:55:27;;;;;;;3.70;0.60;;;;;;;10.75;100.00;99871.09;5052291;28;20257;-75
2022/09/18 07:58:06;;;;;;;2.83;1.03;;;;;;;10.79;100.00;99891.16;5051997;28;20254;-76
2022/09/18 08:00:36;;;;;;;0.47;0.47;;;;;;;10.84;100.00;99880.06;5052409;28;20182;-77
2022/09/18 08:03:02;;;;;;;0.53;0.53;;;;;;;10.90;99.77;99876.03;5033427;28;20241;-76
2022/09/18 08:05:27;;;;;;;0.17;0.17;;;;;;;10.90;99.38;99873.31;5052483;28;20226;-75
2022/09/18 08:07:53;;;;;;;3.93;1.00;;;;;;;10.96;98.34;99877.44;5067564;28;20598;-76
2022/09/18 08:10:18;;;;;;;0.63;0.63;;;;;;;11.03;98.09;99874.22;5079582;28;20559;-76
2022/09/18 08:12:43;;;;;;;1.10;1.07;;;;;;;11.05;98.06;99880.16;5075605;28;20166;-76
2022/09/18 08:15:09;;;;;;;0.63;0.50;;;;;;;10.88;98.90;99869.28;5073214;28;20202;-76
2022/09/18 08:17:34;;;;;;;4.70;0.50;;;;;;;10.76;100.00;99871.91;5072532;28;20518;-76
2022/09/18 08:20:00;;;;;;;0.33;0.33;;;;;;;10.75;100.00;99883.97;5058152;28;20187;-77
2022/09/18 08:22:25;;;;;;;4.33;0.30;;;;;;;10.70;100.00;99877.56;5051574;28;20266;-76
2022/09/18 08:24:51;;;;;;;0.40;0.40;;;;;;;10.64;100.00;99878.84;5050515;28;20183;-75
2022/09/18 08:27:16;;;;;;;0.60;0.20;;;;;;;10.69;100.00;99881.38;5050825;28;20207;-77
2022/09/18 08:29:42;;;;;;;0.13;0.13;;;;;;;10.73;100.00;99892.50;5050081;28;20187;-76
2022/09/18 08:32:07;;;;;;;0.73;0.53;;;;;;;10.80;100.00;99883.78;5039205;28;20581;-76
2022/09/18 08:34:33;;;;;;;0.23;0.23;;;;;;;10.86;100.00;99885.22;5050244;28;20693;-75
2022/09/18 08:36:58;;;;;;;1.93;0.23;;;;;;;10.89;99.88;99876.38;5051051;28;20217;-76
2022/09/18 08:39:24;;;;;;;0.23;0.23;;;;;;;10.87;99.10;99879.44;5051128;28;20270;-76
2022/09/18 08:42:26;;;;;;;5.00;1.40;;;;;;;10.79;97.63;99884.91;5051351;28;20654;-76
2022/09/18 08:44:58;;;;;;;0.10;0.10;;;;;;;10.85;97.15;99889.88;5050962;28;20178;-75
2022/09/18 08:47:31;;;;;;;0.30;0.30;;;;;;;10.92;97.66;99879.22;5051293;28;20187;-76
2022/09/18 08:50:15;;;;;;;0.87;0.40;;;;;;;11.00;98.12;99880.34;5054976;28;20170;-76
2022/09/18 08:52:47;;;;;;;1.73;0.83;;;;;;;11.06;97.68;99880.94;5051055;28;20585;-76
2022/09/18 08:55:26;;;;;;;0.33;0.33;;;;;;;11.19;97.72;99883.47;5050772;28;20329;-76
2022/09/18 08:58:00;;;;;;;0.40;0.40;;;;;;;11.22;97.24;99874.59;5049171;28;20186;-76
2022/09/18 09:00:33;;;;;;;1.17;0.60;;;;;;;11.30;96.83;99879.22;5050718;28;20210;-77
2022/09/18 09:03:46;;;;;;;0.83;0.83;;;;;;;11.36;96.05;99865.38;5050355;28;20186;-75
2022/09/18 09:06:21;;;;;;;0.83;0.30;;;;;;;11.50;96.61;99860.44;5030323;28;20187;-76
2022/09/18 09:09:11;;;;;;;0.30;0.30;;;;;;;11.51;96.77;99859.31;5050658;28;20178;-76
2022/09/18 09:11:57;;;;;;;9.53;0.50;;;;;;;11.59;96.78;99863.94;5050446;28;20179;-76
2022/09/18 09:14:47;;;;;;;2.60;0.77;;;;;;;11.57;95.61;99858.81;5050435;28;20622;-76
2022/09/18 09:17:23;;;;;;;0.37;0.20;;;;;;;11.69;96.21;99865.47;5050262;28;20276;-76
2022/09/18 09:19:58;;;;;;;4.03;0.40;;;;;;;11.74;97.45;99874.28;5046339;28;20547;-76
2022/09/18 09:22:43;;;;;;;1.57;0.40;;;;;;;11.65;95.60;99868.06;5041150;28;20655;-77
2022/09/18 09:25:39;;;;;;;1.33;1.23;;;;;;;11.55;94.61;99850.09;5050460;28;20186;-76
2022/09/18 09:28:17;;;;;;;4.23;0.60;;;;;;;11.50;94.01;99863.19;5050407;28;20210;-75
2022/09/18 09:30:47;;;;;;;0.40;0.40;;;;;;;11.49;94.77;99858.84;5050087;28;20179;-75
2022/09/18 09:33:44;;;;;;;0.37;0.37;;;;;;;11.47;94.88;99855.66;5050151;28;20578;-76
2022/09/18 09:36:13;;;;;;;0.60;0.60;;;;;;;11.50;95.04;99844.84;5047680;28;20222;-76
2022/09/18 09:38:51;;;;;;;0.30;0.30;;;;;;;11.66;95.78;99838.78;5045089;28;20219;-76
2022/09/18 09:41:20;;;;;;;0.30;0.10;;;;;;;11.76;93.55;99847.38;5050059;28;20211;-75
2022/09/18 09:43:53;;;;;;;0.67;0.67;;;;;;;11.82;92.53;99834.31;5050061;28;20638;-76
2022/09/18 09:46:31;;;;;;;0.57;0.57;;;;;;;11.82;90.75;99840.59;5043818;28;20233;-76
2022/09/18 09:49:12;;;;;;;1.97;0.40;;;;;;;11.87;90.78;99839.63;5037278;28;20194;-76
2022/09/18 09:51:41;;;;;;;0.33;0.33;;;;;;;11.75;86.11;99866.88;5048516;28;20183;-76
2022/09/18 09:54:11;;;;;;;0.00;0.00;;;;;;;11.66;88.20;99855.19;5049758;28;20205;-76
2022/09/18 09:56:51;;;;;;;0.00;0.00;;;;;;;11.68;88.65;99848.25;5028971;28;20199;-76
2022/09/18 09:59:51;;;;;;;1.10;0.40;;;;;;;11.60;87.39;99846.38;5033804;28;20597;-76
2022/09/18 10:02:35;;;;;;;0.30;0.20;;;;;;;11.58;87.12;99851.41;5026347;28;20545;-75
2022/09/18 10:05:41;;;;;;;0.00;0.00;;;;;;;11.59;87.09;99848.31;5034050;28;20179;-76
2022/09/18 10:08:15;;;;;;;0.17;0.03;;;;;;;11.63;87.85;99846.50;5051548;28;20642;-76
2022/09/18 10:10:53;;;;;;;1.90;0.70;;;;;;;11.68;88.14;99841.97;5043611;28;20203;-76
2022/09/18 10:13:24;;;;;;;0.47;0.43;;;;;;;11.66;88.21;99850.50;5053763;28;20183;-76
2022/09/18 10:15:56;;;;;;;3.53;0.20;;;;;;;11.64;88.58;99841.84;5060463;28;20202;-76
2022/09/18 10:18:30;;;;;;;0.10;0.10;;;;;;;11.64;88.49;99836.38;5073387;28;20237;-76
2022/09/18 10:21:12;;;;;;;2.93;1.03;;;;;;;11.57;88.49;99827.88;5055831;28;20174;-76
2022/09/18 10:23:39;;;;;;;0.93;0.80;;;;;;;11.50;88.14;99828.41;5073488;28;20254;-76
2022/09/18 10:26:05;;;;;;;0.20;0.20;;;;;;;11.53;88.03;99829.69;5073369;28;20185;-76
2022/09/18 10:28:30;;;;;;;1.30;0.87;;;;;;;11.60;89.09;99832.72;5062713;28;20310;-76
2022/09/18 10:31:10;;;;;;;0.37;0.30;;;;;;;11.55;88.55;99835.63;5053865;28;20221;-76
2022/09/18 10:33:41;;;;;;;0.20;0.20;;;;;;;11.55;89.30;99841.91;5035623;28;20167;-76
2022/09/18 10:36:37;;;;;;;6.80;1.17;;;;;;;11.59;89.13;99831.91;5053013;28;20203;-76
2022/09/18 10:39:29;;;;;;;0.73;0.40;;;;;;;11.57;87.85;99830.63;5053465;28;20225;-76
2022/09/18 10:41:57;;;;;;;6.80;0.77;;;;;;;11.59;88.36;99825.63;5053713;28;20172;-76
2022/09/18 10:44:29;;;;;;;0.20;0.10;;;;;;;11.59;88.19;99817.44;5054274;28;20178;-76
2022/09/18 10:47:03;;;;;;;0.47;0.43;;;;;;;11.58;88.23;99813.88;5061794;28;20191;-75
2022/09/18 10:49:39;;;;;;;0.23;0.10;;;;;;;11.67;89.15;99827.50;5049411;28;20190;-76
2022/09/18 10:52:23;;;;;;;0.10;0.10;;;;;;;11.78;88.74;99834.16;5069155;28;20726;-77
2022/09/18 10:55:01;;;;;;;2.10;0.37;;;;;;;11.75;87.32;99823.91;5073385;28;20190;-73
2022/09/18 10:57:32;;;;;;;0.20;0.20;;;;;;;11.72;87.28;99827.31;5073353;28;20180;-73
2022/09/18 10:59:58;;;;;;;0.17;0.17;;;;;;;11.71;88.46;99835.81;5073611;28;20245;-72
2022/09/18 11:02:27;;;;;;;0.37;0.37;;;;;;;11.58;88.55;99829.50;5073234;28;20266;-73
2022/09/18 11:04:53;;;;;;;3.30;0.10;;;;;;;11.52;88.29;99834.34;5073221;28;20181;-73
2022/09/18 11:07:20;;;;;;;0.40;0.40;;;;;;;11.60;88.08;99824.50;5052095;28;20586;-73
2022/09/18 11:09:46;;;;;;;0.10;0.10;;;;;;;11.62;87.31;99811.28;5031849;28;20176;-75
2022/09/18 11:12:16;;;;;;;5.27;0.80;;;;;;;11.69;86.88;99813.47;5048452;28;20703;-74
2022/09/18 11:14:46;;;;;;;0.50;0.50;;;;;;;11.68;85.69;99820.06;5052987;28;20195;-74
2022/09/18 11:17:22;;;;;;;0.23;0.17;;;;;;;11.69;86.29;99825.22;5050398;28;20171;-75
2022/09/18 11:19:51;;;;;;;0.10;0.10;;;;;;;11.72;85.72;99813.63;5052778;28;20199;-74
2022/09/18 11:22:41;;;;;;;0.10;0.10;;;;;;;11.70;85.68;99823.28;5053357;28;20492;-73
2022/09/18 11:25:13;;;;;;;5.10;0.20;;;;;;;11.76;85.55;99811.81;5046433;28;20187;-73
2022/09/18 11:27:56;;;;;;;0.10;0.10;;;;;;;11.73;86.09;99828.91;5052336;28;20574;-73
2022/09/18 11:30:32;;;;;;;0.20;0.10;;;;;;;11.75;86.72;99807.47;5052744;28;20182;-73
2022/09/18 11:33:12;;;;;;;3.30;0.50;;;;;;;11.72;86.30;99802.69;5052728;28;20838;-73
2022/09/18 11:35:44;;;;;;;11.50;0.30;;;;;;;11.71;85.53;99800.25;5052501;28;20191;-74
2022/09/18 11:38:15;;;;;;;1.60;0.30;;;;;;;11.75;86.48;99823.09;5056547;28;20201;-73
2022/09/18 11:40:49;;;;;;;0.23;0.23;;;;;;;11.68;86.82;99796.25;5032600;28;20152;-73
2022/09/18 11:43:20;;;;;;;1.23;0.40;;;;;;;11.57;86.20;99801.34;5045051;28;20630;-72
2022/09/18 11:46:00;;;;;;;0.63;0.50;;;;;;;11.63;86.77;99791.00;5052206;28;20170;-73
2022/09/18 11:48:53;;;;;;;0.37;0.37;;;;;;;11.51;84.93;99783.50;5050736;28;20214;-73